Time;durP1;ratioP1;P1;durP2;ratioP2;P2;SDS_P1;SDS_P2;PMS_P1;PMS_P2;Temp;Humidity;BMP_temperature;BMP_pressure;BME280_temperature;BME280_humidity;BME280_pressure;Samples;Min_cycle;Max_cycle;Signal;HPM_P1;HPM_P2
2023/05/27 00:01:50;;;;;;;13.30;6.50;;;;;;;16.66;68.19;101096.20;107696;1251;109794;-70
2023/05/27 00:04:19;;;;;;;10.80;5.80;;;;;;;16.63;68.26;101095.93;107598;1251;107621;-70
2023/05/27 00:06:48;;;;;;;13.60;6.20;;;;;;;16.64;68.28;101094.90;107664;1250;96465;-66
2023/05/27 00:09:16;;;;;;;12.30;6.40;;;;;;;16.65;68.28;101092.42;107670;1251;96344;-66
2023/05/27 00:11:45;;;;;;;13.10;5.70;;;;;;;16.68;68.39;101092.23;107614;1254;110134;-66
2023/05/27 00:14:13;;;;;;;10.80;5.60;;;;;;;16.71;68.37;101090.33;107614;1250;109870;-68
2023/05/27 00:16:42;;;;;;;8.80;5.80;;;;;;;16.74;68.54;101093.66;107641;1251;107843;-67
2023/05/27 00:19:10;;;;;;;14.90;6.20;;;;;;;16.75;68.59;101089.89;107607;1251;96461;-66
2023/05/27 00:21:39;;;;;;;11.80;5.60;;;;;;;16.77;68.65;101088.58;107700;1251;96994;-66
2023/05/27 00:24:08;;;;;;;12.30;5.60;;;;;;;16.77;68.55;101086.96;107594;1251;110503;-65
2023/05/27 00:26:38;;;;;;;10.70;5.90;;;;;;;16.77;68.75;101086.80;107715;1251;108858;-67
2023/05/27 00:29:07;;;;;;;10.50;4.90;;;;;;;16.77;68.96;101082.79;107552;1251;108039;-66
2023/05/27 00:31:36;;;;;;;8.60;5.30;;;;;;;16.77;69.00;101081.34;107597;1251;96478;-67
2023/05/27 00:34:04;;;;;;;11.00;5.40;;;;;;;16.77;68.96;101079.50;107654;1251;96987;-66
2023/05/27 00:36:33;;;;;;;13.30;4.80;;;;;;;16.78;68.80;101081.80;107515;1251;110441;-67
2023/05/27 00:39:02;;;;;;;9.80;4.80;;;;;;;16.80;68.49;101075.26;107641;1251;109009;-67
2023/05/27 00:41:31;;;;;;;13.20;5.40;;;;;;;16.82;68.34;101076.51;107678;1251;108668;-66
2023/05/27 00:44:02;;;;;;;7.70;5.10;;;;;;;16.84;68.11;101070.63;107684;1251;96456;-66
2023/05/27 00:46:30;;;;;;;9.00;4.90;;;;;;;16.85;68.13;101066.66;107659;1251;96356;-67
2023/05/27 00:48:59;;;;;;;12.00;5.40;;;;;;;16.86;67.90;101065.46;107650;1251;110001;-67
2023/05/27 00:51:28;;;;;;;11.90;5.10;;;;;;;16.87;67.69;101062.27;107631;1251;108695;-66
2023/05/27 00:53:57;;;;;;;8.90;4.30;;;;;;;16.88;67.62;101064.49;107619;1251;107183;-67
2023/05/27 00:56:25;;;;;;;7.60;4.60;;;;;;;16.88;67.38;101061.81;107626;1256;96471;-68
2023/05/27 00:58:53;;;;;;;7.30;5.00;;;;;;;16.88;67.26;101060.24;107675;1252;96478;-67
2023/05/27 01:01:25;;;;;;;9.70;4.50;;;;;;;16.85;67.17;101061.30;107633;1251;109361;-67
2023/05/27 01:03:55;;;;;;;9.30;5.00;;;;;;;16.85;67.00;101063.23;107626;1250;109380;-66
2023/05/27 01:06:43;;;;;;;6.70;4.70;;;;;;;16.85;66.88;101065.40;107651;1250;108412;-69
2023/05/27 01:09:39;;;;;;;8.80;5.00;;;;;;;16.83;66.81;101063.67;107616;1251;97258;-67
2023/05/27 01:12:10;;;;;;;6.90;5.40;;;;;;;16.83;66.50;101065.46;107605;1251;96365;-67
2023/05/27 01:14:43;;;;;;;7.60;4.80;;;;;;;16.84;66.77;101070.08;107615;1251;110400;-68
2023/05/27 01:17:12;;;;;;;9.20;4.80;;;;;;;16.84;66.63;101067.48;107574;1251;110071;-70
2023/05/27 01:19:44;;;;;;;12.80;4.60;;;;;;;16.86;66.54;101063.90;107633;1256;107242;-70
2023/05/27 01:22:14;;;;;;;9.00;4.70;;;;;;;16.87;66.54;101064.52;107664;1256;96577;-66
2023/05/27 01:24:43;;;;;;;7.70;4.20;;;;;;;16.87;66.63;101066.45;107685;1251;96385;-69
2023/05/27 01:27:15;;;;;;;9.70;5.30;;;;;;;16.86;66.59;101067.61;107623;1251;109248;-68
2023/05/27 01:29:44;;;;;;;12.00;5.00;;;;;;;16.84;66.51;101069.30;107574;1251;109066;-68
2023/05/27 01:32:22;;;;;;;10.40;4.60;;;;;;;16.80;66.60;101068.55;107680;1251;107189;-66
2023/05/27 01:34:53;;;;;;;6.20;4.80;;;;;;;16.76;66.23;101075.52;107589;1250;96463;-67
2023/05/27 01:37:25;;;;;;;12.70;5.70;;;;;;;16.74;66.17;101076.98;107616;1254;97015;-66
2023/05/27 01:39:55;;;;;;;18.10;6.00;;;;;;;16.73;66.36;101081.09;107615;1251;110041;-65
2023/05/27 01:42:24;;;;;;;9.90;4.90;;;;;;;16.71;66.60;101080.59;107596;1251;108135;-67
2023/05/27 01:44:53;;;;;;;12.60;5.10;;;;;;;16.67;66.51;101078.23;107671;1256;108599;-67
2023/05/27 01:47:22;;;;;;;6.90;5.30;;;;;;;16.64;66.57;101079.90;107558;1251;96488;-66
2023/05/27 01:49:51;;;;;;;8.80;5.40;;;;;;;16.60;66.66;101077.63;107624;1251;97013;-68
2023/05/27 01:52:19;;;;;;;8.40;5.30;;;;;;;16.56;66.80;101078.73;107586;1251;110086;-67
2023/05/27 01:54:47;;;;;;;6.80;4.70;;;;;;;16.51;67.04;101080.53;107686;1251;110255;-67
2023/05/27 01:57:17;;;;;;;13.60;6.40;;;;;;;16.48;67.36;101081.45;107544;1251;108500;-66
2023/05/27 01:59:45;;;;;;;14.30;5.60;;;;;;;16.44;67.46;101087.10;107672;1251;96959;-67
2023/05/27 02:02:13;;;;;;;9.80;5.40;;;;;;;16.40;67.55;101085.52;107723;1256;96974;-67
2023/05/27 02:04:42;;;;;;;8.30;5.10;;;;;;;16.37;67.63;101084.77;107603;1251;110737;-67
2023/05/27 02:07:10;;;;;;;10.20;5.40;;;;;;;16.32;67.97;101084.44;107605;1251;108119;-68
2023/05/27 02:09:39;;;;;;;12.30;5.80;;;;;;;16.28;68.28;101083.01;107629;1251;106637;-66
2023/05/27 02:12:07;;;;;;;9.70;5.40;;;;;;;16.24;68.54;101088.31;107568;1256;96471;-66
2023/05/27 02:14:38;;;;;;;11.70;5.40;;;;;;;16.23;68.59;101091.36;107706;1250;96621;-65
2023/05/27 02:17:07;;;;;;;14.00;5.00;;;;;;;16.23;68.57;101095.33;107678;1251;110378;-66
2023/05/27 02:19:36;;;;;;;12.60;5.00;;;;;;;16.24;68.60;101104.84;107648;1256;109201;-67
2023/05/27 02:22:08;;;;;;;9.80;5.60;;;;;;;16.25;68.64;101103.09;107582;1251;108874;-73
2023/05/27 02:24:36;;;;;;;11.10;5.90;;;;;;;16.26;68.75;101103.90;107617;1250;96502;-67
2023/05/27 02:27:05;;;;;;;9.60;5.50;;;;;;;16.25;69.00;101109.53;107613;1251;97039;-66
2023/05/27 02:29:34;;;;;;;16.70;5.70;;;;;;;16.25;69.08;101099.77;107726;1251;110112;-66
2023/05/27 02:32:05;;;;;;;10.10;5.50;;;;;;;16.25;69.16;101101.05;107731;1251;110152;-66
2023/05/27 02:34:37;;;;;;;8.00;5.50;;;;;;;16.27;69.03;101104.85;107541;1251;108006;-66
2023/05/27 02:37:06;;;;;;;13.50;6.10;;;;;;;16.30;69.18;101104.39;107584;1250;96580;-67
2023/05/27 02:39:34;;;;;;;10.50;6.10;;;;;;;16.30;69.31;101105.44;107615;1251;97022;-68
2023/05/27 02:42:02;;;;;;;10.40;6.50;;;;;;;16.27;69.70;101102.27;107623;1251;110369;-66
2023/05/27 02:44:31;;;;;;;10.90;5.60;;;;;;;16.27;69.79;101099.25;107644;1252;109694;-65
2023/05/27 02:47:00;;;;;;;11.10;5.30;;;;;;;16.27;70.02;101097.66;107613;1251;107690;-67
2023/05/27 02:49:29;;;;;;;11.70;6.40;;;;;;;16.25;70.14;101099.65;107613;1251;96564;-65
2023/05/27 02:51:58;;;;;;;10.80;6.10;;;;;;;16.25;70.21;101100.67;107640;1253;97888;-67
2023/05/27 02:54:26;;;;;;;9.70;6.50;;;;;;;16.27;70.13;101107.86;107640;1251;110269;-65
2023/05/27 02:56:54;;;;;;;9.70;6.50;;;;;;;16.30;70.25;101108.55;107612;1257;109172;-69
2023/05/27 02:59:22;;;;;;;12.10;6.20;;;;;;;16.31;70.19;101100.63;107644;1254;107656;-67
2023/05/27 03:01:51;;;;;;;11.70;6.20;;;;;;;16.34;70.22;101108.23;107647;1251;96565;-68
2023/05/27 03:04:21;;;;;;;11.50;5.80;;;;;;;16.40;70.01;101104.41;107666;1251;96555;-66
2023/05/27 03:06:49;;;;;;;20.70;6.50;;;;;;;16.43;69.93;101104.21;107652;1257;111111;-67
2023/05/27 03:09:17;;;;;;;11.70;5.90;;;;;;;16.46;70.06;101104.85;107635;1253;110085;-67
2023/05/27 03:11:45;;;;;;;15.10;6.50;;;;;;;16.51;69.75;101103.23;107524;1250;108653;-67
2023/05/27 03:14:14;;;;;;;10.70;6.60;;;;;;;16.55;69.58;101102.90;107517;1251;96475;-66
2023/05/27 03:16:43;;;;;;;15.50;6.80;;;;;;;16.62;69.55;101106.58;107667;1253;96381;-71
2023/05/27 03:19:11;;;;;;;12.50;6.10;;;;;;;16.65;69.48;101110.39;107747;1251;109534;-67
2023/05/27 03:21:40;;;;;;;9.20;6.20;;;;;;;16.68;69.30;101116.91;107699;1251;109795;-66
2023/05/27 03:24:08;;;;;;;20.30;11.40;;;;;;;16.68;69.21;101117.58;107588;1254;108160;-64
2023/05/27 03:26:37;;;;;;;12.00;6.60;;;;;;;16.66;69.66;101122.25;107612;1252;96347;-68
2023/05/27 03:29:06;;;;;;;14.70;6.20;;;;;;;16.68;69.55;101125.41;107585;1251;96344;-66
2023/05/27 03:31:34;;;;;;;11.50;6.50;;;;;;;16.67;69.64;101127.17;107639;1251;110333;-67
2023/05/27 03:34:07;;;;;;;8.40;6.10;;;;;;;16.68;69.55;101127.64;107647;1257;108946;-65
2023/05/27 03:36:38;;;;;;;13.80;6.70;;;;;;;16.69;69.77;101127.98;107548;1251;108069;-66
2023/05/27 03:39:07;;;;;;;13.60;6.80;;;;;;;16.70;69.67;101131.58;107604;1251;96491;-67
2023/05/27 03:41:36;;;;;;;8.40;6.20;;;;;;;16.74;69.75;101130.77;107652;1252;96378;-66
2023/05/27 03:44:05;;;;;;;9.80;6.20;;;;;;;16.74;69.66;101129.52;107681;1251;110319;-67
2023/05/27 03:46:35;;;;;;;14.30;5.60;;;;;;;16.77;69.46;101134.61;107698;1251;109978;-70
2023/05/27 03:49:04;;;;;;;10.00;5.80;;;;;;;16.79;69.73;101138.41;107674;1251;108710;-72
2023/05/27 03:51:32;;;;;;;11.60;5.90;;;;;;;16.77;69.89;101140.21;107688;1251;96442;-67
2023/05/27 03:54:03;;;;;;;11.40;5.70;;;;;;;16.77;69.78;101138.98;107643;1256;96478;-67
2023/05/27 03:56:32;;;;;;;9.10;5.90;;;;;;;16.77;70.03;101142.05;107615;1251;110619;-69
2023/05/27 03:59:00;;;;;;;10.90;5.80;;;;;;;16.78;69.93;101141.55;107663;1251;109255;-67
2023/05/27 04:01:31;;;;;;;14.60;5.80;;;;;;;16.81;70.00;101146.16;107542;1251;107629;-69
2023/05/27 04:04:00;;;;;;;9.80;5.90;;;;;;;16.81;69.98;101152.81;107560;1251;96504;-67
2023/05/27 04:06:31;;;;;;;15.00;6.30;;;;;;;16.83;69.88;101150.65;107683;1256;96972;-66
2023/05/27 04:09:00;;;;;;;10.70;5.50;;;;;;;16.86;69.92;101150.30;107639;1251;109469;-68
2023/05/27 04:11:30;;;;;;;10.90;5.60;;;;;;;16.88;69.86;101153.55;107550;1251;108959;-66
2023/05/27 04:13:59;;;;;;;10.30;6.00;;;;;;;16.89;69.84;101154.06;107706;1251;108727;-67
2023/05/27 04:16:31;;;;;;;12.90;5.60;;;;;;;16.90;69.99;101153.98;107493;1251;96471;-70
2023/05/27 04:19:00;;;;;;;15.50;6.20;;;;;;;16.92;69.86;101154.93;107659;1256;96383;-67
2023/05/27 04:21:28;;;;;;;9.60;6.90;;;;;;;16.94;69.88;101154.33;107637;1256;110434;-68
2023/05/27 04:23:57;;;;;;;8.80;6.10;;;;;;;16.96;70.02;101152.55;107570;1251;109865;-67
2023/05/27 04:26:26;;;;;;;9.50;5.10;;;;;;;16.99;69.98;101154.11;107706;1249;108587;-67
2023/05/27 04:28:59;;;;;;;9.70;5.70;;;;;;;17.04;70.01;101153.75;107612;1251;96567;-68
2023/05/27 04:31:30;;;;;;;16.20;6.60;;;;;;;17.08;70.00;101150.42;107649;1251;96532;-68
2023/05/27 04:34:03;;;;;;;11.80;5.80;;;;;;;17.13;70.01;101151.36;107620;1251;110411;-66
2023/05/27 04:36:34;;;;;;;15.70;6.00;;;;;;;17.14;70.05;101148.49;107564;1251;109196;-67
2023/05/27 04:39:05;;;;;;;13.50;7.10;;;;;;;17.18;70.12;101151.92;107569;1251;108911;-66
2023/05/27 04:41:35;;;;;;;15.10;5.90;;;;;;;17.21;70.07;101156.10;107617;1250;96469;-68
2023/05/27 04:44:09;;;;;;;12.30;6.00;;;;;;;17.26;70.01;101155.95;107611;1251;97140;-66
2023/05/27 04:46:43;;;;;;;9.20;5.40;;;;;;;17.29;69.80;101152.34;107658;1251;110893;-68
2023/05/27 04:49:12;;;;;;;10.50;6.50;;;;;;;17.35;69.74;101153.60;107703;1256;109063;-67
2023/05/27 04:51:41;;;;;;;8.40;6.30;;;;;;;17.40;69.72;101153.25;107684;1251;108194;-67
2023/05/27 04:54:09;;;;;;;10.20;6.00;;;;;;;17.48;69.73;101159.44;107510;1251;96350;-68
2023/05/27 04:56:38;;;;;;;8.60;5.20;;;;;;;17.52;69.19;101156.23;107519;1251;96356;-68
2023/05/27 04:59:16;;;;;;;11.50;6.40;;;;;;;17.58;69.46;101156.33;107601;1254;110854;-67
2023/05/27 05:04:39;;;;;;;8.40;5.30;;;;;;;17.74;69.02;101158.77;107701;1255;108037;-67
2023/05/27 05:07:07;;;;;;;7.20;5.30;;;;;;;17.84;69.14;101162.27;107667;1251;96951;-65
2023/05/27 05:09:38;;;;;;;6.90;5.20;;;;;;;17.88;68.30;101158.38;107590;1253;96561;-66
2023/05/27 05:12:12;;;;;;;9.70;5.20;;;;;;;17.97;68.36;101156.36;107689;1250;110127;-66
2023/05/27 05:14:42;;;;;;;11.80;5.40;;;;;;;18.06;67.99;101157.13;107640;1252;108820;-65
2023/05/27 05:17:10;;;;;;;10.90;5.30;;;;;;;18.14;67.73;101154.61;107673;1251;108107;-66
2023/05/27 05:19:39;;;;;;;9.30;5.10;;;;;;;18.22;67.69;101154.36;107722;1249;96330;-67
2023/05/27 05:22:07;;;;;;;7.30;5.50;;;;;;;18.31;67.21;101151.58;107608;1251;96481;-66
2023/05/27 05:24:36;;;;;;;16.60;5.50;;;;;;;18.40;66.50;101151.20;107579;1251;109627;-67
2023/05/27 05:27:08;;;;;;;8.80;5.20;;;;;;;18.47;66.20;101154.63;107647;1251;108537;-70
2023/05/27 05:29:38;;;;;;;12.30;5.60;;;;;;;18.53;66.38;101159.31;107671;1254;108756;-69
2023/05/27 05:32:12;;;;;;;7.40;4.80;;;;;;;18.55;66.02;101158.71;107683;1255;96535;-67
2023/05/27 05:34:41;;;;;;;10.40;5.90;;;;;;;18.58;66.07;101160.07;107607;1251;97028;-66
2023/05/27 05:37:11;;;;;;;8.30;4.90;;;;;;;18.66;66.10;101157.91;107536;1251;110969;-67
2023/05/27 05:39:42;;;;;;;20.80;5.20;;;;;;;18.71;65.82;101159.73;107578;1251;109479;-72
2023/05/27 05:42:10;;;;;;;11.70;5.30;;;;;;;18.75;65.52;101161.02;107721;1251;108626;-72
2023/05/27 05:44:39;;;;;;;12.70;5.60;;;;;;;18.83;65.51;101164.61;107595;1251;96456;-68
2023/05/27 05:47:08;;;;;;;13.80;5.10;;;;;;;18.89;65.29;101162.83;107538;1251;96369;-67
2023/05/27 05:49:37;;;;;;;7.60;5.10;;;;;;;18.94;65.17;101161.01;107510;1251;109901;-66
2023/05/27 05:52:06;;;;;;;13.00;5.40;;;;;;;19.01;65.04;101165.08;107548;1251;110000;-67
2023/05/27 05:54:34;;;;;;;14.10;5.70;;;;;;;19.10;64.86;101163.81;107648;1257;108341;-67
2023/05/27 05:57:02;;;;;;;9.30;5.70;;;;;;;19.17;64.74;101161.20;107728;1250;96466;-67
2023/05/27 05:59:34;;;;;;;9.30;4.80;;;;;;;19.23;64.36;101164.92;107643;1251;96364;-70
2023/05/27 06:02:02;;;;;;;16.20;4.70;;;;;;;19.29;64.01;101164.44;107628;1251;109669;-68
2023/05/27 06:04:31;;;;;;;21.70;6.30;;;;;;;19.35;63.97;101164.28;107581;1250;109690;-67
2023/05/27 06:07:00;;;;;;;11.90;4.70;;;;;;;19.42;63.75;101168.52;107608;1253;106700;-66
2023/05/27 06:09:35;;;;;;;12.20;4.60;;;;;;;19.49;63.52;101166.09;107568;1251;96455;-67
2023/05/27 06:12:07;;;;;;;10.10;5.20;;;;;;;19.54;62.93;101169.83;107622;1251;97035;-66
2023/05/27 06:14:41;;;;;;;15.70;5.60;;;;;;;19.55;62.62;101172.02;107618;1251;109876;-69
2023/05/27 06:17:10;;;;;;;12.50;5.70;;;;;;;19.62;62.55;101171.83;107604;1251;109663;-68
2023/05/27 06:19:38;;;;;;;9.60;5.40;;;;;;;19.74;62.29;101174.02;107621;1251;106953;-67
2023/05/27 06:22:07;;;;;;;12.10;5.40;;;;;;;19.85;61.53;101173.92;107511;1251;96465;-68
2023/05/27 06:24:50;;;;;;;10.40;4.90;;;;;;;20.00;61.29;101176.91;107708;1251;96464;-67
2023/05/27 06:27:29;;;;;;;7.80;4.80;;;;;;;20.15;60.81;101181.78;107726;1251;111009;-67
2023/05/27 06:29:58;;;;;;;8.80;4.70;;;;;;;20.29;60.35;101179.56;107560;1250;109235;-68
2023/05/27 06:32:34;;;;;;;12.00;5.70;;;;;;;20.42;60.23;101172.91;107578;1251;107915;-66
2023/05/27 06:35:04;;;;;;;12.20;4.80;;;;;;;20.56;59.67;101173.86;107555;1251;96452;-67
2023/05/27 06:37:32;;;;;;;15.40;5.50;;;;;;;20.69;58.77;101179.29;107715;1251;96458;-67
2023/05/27 06:40:00;;;;;;;11.00;5.40;;;;;;;20.78;57.92;101181.63;107586;1250;110282;-67
2023/05/27 06:42:29;;;;;;;7.50;5.10;;;;;;;20.83;57.45;101180.52;107611;1251;108880;-68
2023/05/27 06:45:10;;;;;;;8.50;5.40;;;;;;;20.85;57.30;101181.02;107566;1251;108284;-69
2023/05/27 06:47:39;;;;;;;19.00;10.60;;;;;;;20.89;57.40;101178.84;107679;1251;96759;-67
2023/05/27 06:50:08;;;;;;;9.80;5.60;;;;;;;20.93;57.44;101183.94;107620;1251;96365;-68
2023/05/27 06:52:37;;;;;;;7.70;5.20;;;;;;;20.95;56.93;101181.35;107713;1251;108551;-66
2023/05/27 06:55:41;;;;;;;;;;;;;;;21.00;57.10;101184.89;107033;1263;109197;-68
2023/05/27 06:58:09;;;;;;;12.90;5.00;;;;;;;21.07;56.64;101187.14;107506;1253;107458;-68
2023/05/27 07:01:07;;;;;;;11.90;4.90;;;;;;;21.08;56.32;101189.55;107434;1251;96549;-67
2023/05/27 07:03:58;;;;;;;13.20;5.10;;;;;;;21.09;56.40;101193.05;107611;1251;98091;-68
2023/05/27 07:06:37;;;;;;;6.90;4.80;;;;;;;21.15;56.37;101195.05;107592;1251;109813;-67
2023/05/27 07:09:06;;;;;;;13.00;4.80;;;;;;;21.29;56.10;101194.03;107662;1250;109671;-68
2023/05/27 07:11:35;;;;;;;15.70;5.90;;;;;;;21.47;55.27;101192.92;107661;1251;106684;-66
2023/05/27 07:14:09;;;;;;;11.40;4.90;;;;;;;21.59;55.84;101191.50;107589;1251;96459;-67
2023/05/27 07:16:39;;;;;;;8.90;4.80;;;;;;;21.72;55.22;101189.39;107615;1251;97024;-66
2023/05/27 07:19:08;;;;;;;14.50;5.10;;;;;;;21.80;54.84;101192.55;107655;1251;109341;-70
2023/05/27 07:21:45;;;;;;;10.40;4.40;;;;;;;21.79;54.38;101188.88;107608;1254;109322;-66
2023/05/27 07:24:18;;;;;;;9.90;4.40;;;;;;;21.76;54.43;101184.73;107643;1251;108774;-65
2023/05/27 07:26:46;;;;;;;13.40;5.80;;;;;;;21.75;54.16;101188.65;107634;1251;96462;-66
2023/05/27 07:29:15;;;;;;;16.00;5.40;;;;;;;21.76;54.03;101198.30;107707;1251;96391;-66
2023/05/27 07:32:13;;;;;;;9.60;4.40;;;;;;;21.77;54.21;101197.92;107554;1251;110459;-66
2023/05/27 07:34:41;;;;;;;6.50;4.10;;;;;;;21.82;54.18;101196.40;107563;1251;112641;-66
2023/05/27 07:37:09;;;;;;;9.00;5.20;;;;;;;21.88;54.18;101193.11;107594;1251;108170;-67
2023/05/27 07:39:38;;;;;;;15.90;5.10;;;;;;;21.97;53.41;101186.33;107630;1250;96494;-69
2023/05/27 07:42:08;;;;;;;13.70;5.70;;;;;;;21.98;53.09;101189.54;107548;1251;97013;-67
2023/05/27 07:44:37;;;;;;;18.60;5.20;;;;;;;21.93;53.26;101186.02;107649;1251;110914;-67
2023/05/27 07:47:05;;;;;;;19.30;5.60;;;;;;;21.97;53.27;101186.20;107636;1251;108484;-68
2023/05/27 07:49:36;;;;;;;11.50;4.80;;;;;;;21.98;52.97;101184.27;107674;1250;107470;-68
2023/05/27 07:52:25;;;;;;;11.10;4.90;;;;;;;22.02;53.49;101190.12;107505;1251;96497;-66
2023/05/27 07:54:53;;;;;;;15.80;5.40;;;;;;;22.19;52.96;101183.33;107667;1250;96373;-66
2023/05/27 07:57:25;;;;;;;11.00;5.70;;;;;;;22.41;52.37;101181.75;107682;1251;109948;-67
2023/05/27 07:59:53;;;;;;;7.70;4.80;;;;;;;22.57;52.40;101179.25;107643;1251;109502;-70
2023/05/27 08:02:25;;;;;;;14.20;4.90;;;;;;;22.79;52.15;101177.40;106776;1251;1027448;-70
2023/05/27 08:04:55;;;;;;;13.40;6.10;;;;;;;23.05;52.07;101181.20;107738;1250;96497;-72
2023/05/27 08:07:37;;;;;;;12.70;4.30;;;;;;;23.39;50.81;101181.20;107592;1251;96451;-72
2023/05/27 08:10:44;;;;;;;7.20;4.70;;;;;;;23.70;50.63;101183.72;107208;1257;110387;-67
2023/05/27 08:13:38;;;;;;;12.60;4.80;;;;;;;24.06;48.34;101174.79;107066;1258;109635;-66
2023/05/27 08:16:24;;;;;;;11.60;4.30;;;;;;;24.09;48.16;101186.40;107495;1251;109717;-65
2023/05/27 08:19:07;;;;;;;;;;;;;;;24.10;47.83;101179.13;107596;1250;96927;-67
2023/05/27 08:21:46;;;;;;;10.60;5.10;;;;;;;24.05;47.89;101186.62;107569;1249;96471;-66
2023/05/27 08:24:49;;;;;;;11.30;4.40;;;;;;;24.20;47.91;101184.93;107502;1251;109969;-66
2023/05/27 08:27:44;;;;;;;12.00;4.30;;;;;;;24.40;47.49;101189.08;107589;1251;109961;-66
2023/05/27 08:30:19;;;;;;;13.60;4.70;;;;;;;24.53;46.27;101188.30;107605;1251;108745;-66
2023/05/27 08:32:56;;;;;;;9.30;4.60;;;;;;;24.62;45.62;101184.77;107570;1251;96484;-67
2023/05/27 08:35:24;;;;;;;16.30;4.20;;;;;;;24.69;45.35;101175.62;107594;1251;96975;-67
2023/05/27 08:37:53;;;;;;;18.90;4.80;;;;;;;24.71;45.97;101173.42;107696;1251;110035;-67
2023/05/27 08:40:23;;;;;;;8.70;4.30;;;;;;;24.83;45.68;101174.11;107631;1251;108868;-68
2023/05/27 08:42:55;;;;;;;19.00;4.70;;;;;;;24.96;45.16;101169.82;107656;1251;107747;-67
2023/05/27 08:45:25;;;;;;;7.20;3.60;;;;;;;25.07;44.96;101170.04;107796;1251;96526;-66
2023/05/27 08:47:54;;;;;;;17.40;4.80;;;;;;;25.04;44.52;101167.48;107616;1251;96356;-67
2023/05/27 08:50:29;;;;;;;10.30;4.60;;;;;;;25.09;44.40;101162.57;107702;1251;111479;-67
2023/05/27 08:52:58;;;;;;;7.60;4.30;;;;;;;25.17;43.90;101158.63;107670;1251;109814;-67
2023/05/27 08:55:29;;;;;;;12.00;4.40;;;;;;;25.28;43.71;101154.23;107698;1251;108253;-68
2023/05/27 08:57:59;;;;;;;9.50;4.30;;;;;;;25.40;43.64;101149.45;107665;1250;96475;-67
2023/05/27 09:00:29;;;;;;;12.30;4.40;;;;;;;25.48;43.53;101150.67;107702;1251;96490;-66
2023/05/27 09:03:05;;;;;;;8.40;4.50;;;;;;;25.69;42.95;101150.88;107584;1251;110139;-67
2023/05/27 09:05:35;;;;;;;11.80;3.90;;;;;;;25.85;43.52;101155.88;107535;1251;109403;-66
2023/05/27 09:08:03;;;;;;;8.90;3.80;;;;;;;25.96;42.70;101152.54;107483;1251;108476;-70
2023/05/27 09:10:40;;;;;;;9.00;4.20;;;;;;;26.09;41.88;101151.42;107754;1250;96331;-67
2023/05/27 09:13:08;;;;;;;11.40;4.10;;;;;;;26.12;41.77;101152.46;107642;1251;96487;-66
2023/05/27 09:15:37;;;;;;;10.80;5.40;;;;;;;26.12;41.92;101153.01;107512;1251;110546;-66
2023/05/27 09:18:07;;;;;;;12.00;4.80;;;;;;;26.12;42.07;101152.75;107520;1251;110115;-67
2023/05/27 09:20:35;;;;;;;12.50;4.50;;;;;;;26.17;41.62;101157.69;107585;1251;107412;-67
2023/05/27 09:23:04;;;;;;;9.40;4.20;;;;;;;26.35;41.08;101155.56;107694;1251;96587;-71
2023/05/27 09:25:33;;;;;;;8.70;4.50;;;;;;;26.47;40.79;101159.34;107592;1251;96350;-69
2023/05/27 09:28:05;;;;;;;8.90;4.40;;;;;;;26.44;40.31;101159.27;107598;1250;110441;-66
2023/05/27 09:30:33;;;;;;;14.90;6.50;;;;;;;26.46;40.33;101159.48;107681;1251;110500;-67
2023/05/27 09:33:05;;;;;;;6.10;4.30;;;;;;;26.51;41.08;101160.06;107548;1250;108097;-68
2023/05/27 09:35:46;;;;;;;9.70;4.40;;;;;;;26.71;41.16;101161.10;107572;1251;96456;-70
2023/05/27 09:38:15;;;;;;;8.40;4.00;;;;;;;26.99;40.83;101156.45;107687;1251;96999;-69
2023/05/27 09:40:47;;;;;;;17.30;4.30;;;;;;;27.13;40.08;101153.16;107686;1251;110228;-67
2023/05/27 09:43:17;;;;;;;8.30;4.20;;;;;;;27.25;39.36;101153.95;107720;1251;109843;-68
2023/05/27 09:45:45;;;;;;;17.20;4.20;;;;;;;27.37;39.71;101151.02;107639;1250;108197;-66
2023/05/27 09:48:20;;;;;;;9.70;3.80;;;;;;;27.47;39.46;101154.18;107563;1250;96461;-68
2023/05/27 09:50:49;;;;;;;11.20;4.70;;;;;;;27.40;39.26;101152.98;107555;1251;96449;-66
2023/05/27 09:53:21;;;;;;;7.60;3.60;;;;;;;27.65;39.11;101146.80;107553;1251;110414;-67
2023/05/27 09:55:52;;;;;;;12.50;4.10;;;;;;;27.91;39.56;101142.16;107618;1251;108844;-66
2023/05/27 09:58:22;;;;;;;13.60;4.80;;;;;;;28.27;38.33;101139.28;107593;1251;108678;-67
2023/05/27 10:00:51;;;;;;;10.40;4.50;;;;;;;28.65;36.87;101126.88;107634;1251;96472;-66
2023/05/27 10:03:28;;;;;;;8.70;3.70;;;;;;;29.01;37.28;101126.02;107565;1251;96338;-67
2023/05/27 10:05:56;;;;;;;11.00;4.60;;;;;;;29.27;35.69;101121.34;107592;1251;110826;-67
2023/05/27 10:08:26;;;;;;;13.10;4.00;;;;;;;29.32;36.26;101120.21;107482;1254;110578;-66
2023/05/27 10:10:55;;;;;;;7.10;3.90;;;;;;;29.70;35.65;101116.34;107679;1255;107342;-70
2023/05/27 10:13:25;;;;;;;13.20;4.20;;;;;;;30.15;34.20;101115.20;107527;1251;96477;-69
2023/05/27 10:15:56;;;;;;;9.10;4.20;;;;;;;30.50;34.43;101120.64;107716;1251;96478;-65
2023/05/27 10:18:31;;;;;;;9.00;4.30;;;;;;;30.93;33.82;101116.50;107495;1251;110056;-68
2023/05/27 10:21:03;;;;;;;9.00;3.60;;;;;;;31.41;33.34;101112.20;107521;1250;110489;-67
2023/05/27 10:23:32;;;;;;;12.10;4.20;;;;;;;31.87;32.10;101103.35;107548;1251;108221;-67
2023/05/27 10:26:02;;;;;;;14.10;3.80;;;;;;;32.08;31.58;101108.21;107577;1251;96458;-66
2023/05/27 10:28:35;;;;;;;8.30;3.70;;;;;;;32.23;31.38;101106.89;107610;1250;96360;-67
2023/05/27 10:31:08;;;;;;;7.20;3.80;;;;;;;32.50;30.54;101099.70;107570;1251;110222;-69
2023/05/27 10:33:43;;;;;;;8.90;3.30;;;;;;;32.60;30.18;101096.38;107568;1252;110067;-66
2023/05/27 10:36:13;;;;;;;10.90;3.80;;;;;;;32.85;29.95;101087.54;107630;1251;107542;-66
2023/05/27 10:38:43;;;;;;;12.10;3.40;;;;;;;33.08;29.60;101088.59;107657;1251;96555;-65
2023/05/27 10:41:11;;;;;;;9.60;3.40;;;;;;;33.26;29.71;101082.77;107651;1250;96401;-66
2023/05/27 10:43:40;;;;;;;5.80;3.50;;;;;;;33.56;28.42;101077.70;107612;1250;111032;-68
2023/05/27 10:46:12;;;;;;;10.90;3.60;;;;;;;33.39;27.95;101070.20;107625;1251;110132;-68
2023/05/27 10:48:41;;;;;;;6.30;3.50;;;;;;;33.41;28.20;101069.44;107586;1250;108611;-69
2023/05/27 10:51:10;;;;;;;5.90;3.10;;;;;;;33.40;28.32;101060.63;107512;1251;96345;-67
2023/05/27 10:53:38;;;;;;;6.30;3.50;;;;;;;33.62;28.32;101054.81;107561;1251;96428;-67
2023/05/27 10:56:08;;;;;;;5.90;3.20;;;;;;;33.98;27.64;101048.05;107628;1251;110324;-68
2023/05/27 10:58:38;;;;;;;3.50;2.50;;;;;;;34.22;27.09;101043.27;107638;1251;109023;-67
2023/05/27 11:01:11;;;;;;;10.00;3.20;;;;;;;34.48;27.38;101044.89;107594;1251;108178;-65
2023/05/27 11:03:44;;;;;;;;;;;;;;;34.78;26.77;101042.80;107593;1251;96453;-67
2023/05/27 11:06:15;;;;;;;10.70;3.60;;;;;;;34.91;26.33;101038.45;107582;1251;96561;-66
2023/05/27 11:08:43;;;;;;;10.20;3.20;;;;;;;34.98;26.92;101026.09;107579;1254;109430;-67
2023/05/27 11:11:13;;;;;;;8.90;3.40;;;;;;;35.25;26.51;101021.33;107655;1251;109296;-67
2023/05/27 11:13:44;;;;;;;8.60;2.90;;;;;;;35.37;26.62;101013.70;107603;1251;106606;-65
2023/05/27 11:16:16;;;;;;;8.90;3.20;;;;;;;35.71;25.23;101008.86;107579;1251;96484;-66
2023/05/27 11:18:47;;;;;;;9.20;3.20;;;;;;;35.62;25.23;101013.28;107586;1251;97095;-67
2023/05/27 11:21:17;;;;;;;8.20;3.10;;;;;;;35.58;25.48;101008.81;107624;1251;110747;-66
2023/05/27 11:23:48;;;;;;;9.40;2.80;;;;;;;35.58;25.07;101009.70;107607;1251;110063;-67
2023/05/27 11:26:21;;;;;;;7.20;2.70;;;;;;;35.59;25.19;101010.69;107622;1251;108314;-66
2023/05/27 11:28:51;;;;;;;11.80;2.90;;;;;;;35.75;25.25;101009.48;107636;1249;96428;-66
2023/05/27 11:31:21;;;;;;;9.60;2.40;;;;;;;35.73;25.26;101012.46;107607;1253;97018;-68